createdAt,value
2022-10-31T00:01:13.376Z,98855.03
2022-10-31T00:03:40.009Z,98858.78
2022-10-31T00:06:06.739Z,98862.50
2022-10-31T00:08:33.444Z,98860.97
2022-10-31T00:11:00.051Z,98865.47
2022-10-31T00:13:26.647Z,98863.06
2022-10-31T00:15:53.263Z,98860.03
2022-10-31T00:18:19.845Z,98867.13
2022-10-31T00:20:46.448Z,98868.16
2022-10-31T00:23:13.117Z,98872.91
2022-10-31T00:25:40.912Z,98872.19
2022-10-31T00:28:08.850Z,98875.03
2022-10-31T00:30:35.486Z,98875.97
2022-10-31T00:33:05.281Z,98874.63
2022-10-31T00:35:31.984Z,98876.81
2022-10-31T00:37:58.568Z,98886.09
2022-10-31T00:40:25.582Z,98883.78
2022-10-31T00:42:52.266Z,98880.50
2022-10-31T00:45:18.962Z,98886.03
2022-10-31T00:47:45.603Z,98881.09
2022-10-31T00:50:12.221Z,98883.88
2022-10-31T00:52:38.950Z,98887.56
2022-10-31T00:55:05.695Z,98874.38
2022-10-31T00:57:32.237Z,98885.97
2022-10-31T00:59:58.894Z,98882.69
2022-10-31T01:02:25.528Z,98880.88
2022-10-31T01:04:52.186Z,98877.78
2022-10-31T01:07:18.949Z,98880.84
2022-10-31T01:09:45.558Z,98882.94
2022-10-31T01:12:12.194Z,98870.84
2022-10-31T01:14:38.670Z,98879.25
2022-10-31T01:17:05.217Z,98875.28
2022-10-31T01:19:31.878Z,98872.84
2022-10-31T01:21:58.472Z,98875.53
2022-10-31T01:24:25.170Z,98872.06
2022-10-31T01:26:51.793Z,98876.59
2022-10-31T01:29:18.440Z,98882.63
2022-10-31T01:31:45.103Z,98882.53
2022-10-31T01:34:17.271Z,98875.78
2022-10-31T01:36:46.130Z,98869.84
2022-10-31T01:39:15.541Z,98876.03
2022-10-31T01:41:50.758Z,98874.31
2022-10-31T01:44:17.339Z,98872.28
2022-10-31T01:47:02.418Z,98871.56
2022-10-31T01:49:47.351Z,98862.94
2022-10-31T01:52:21.747Z,98866.50
2022-10-31T01:55:23.260Z,98868.88
2022-10-31T01:57:54.923Z,98881.50
2022-10-31T02:00:22.949Z,98880.66
2022-10-31T02:02:51.401Z,98888.72
2022-10-31T02:05:22.072Z,98874.19
2022-10-31T02:07:58.362Z,98885.63
2022-10-31T02:10:25.833Z,98885.09
2022-10-31T02:13:00.367Z,98885.22
2022-10-31T02:15:27.846Z,98891.34
2022-10-31T02:17:54.446Z,98886.22
2022-10-31T02:20:23.359Z,98876.56
2022-10-31T02:22:55.919Z,98887.16
2022-10-31T02:26:00.410Z,98889.75
2022-10-31T02:29:04.718Z,98886.13
2022-10-31T02:31:47.897Z,98883.34
2022-10-31T02:34:24.743Z,98882.31
2022-10-31T02:37:15.226Z,98884.31
2022-10-31T02:40:20.667Z,98880.59
2022-10-31T02:43:24.355Z,98876.28
2022-10-31T02:46:05.883Z,98879.66
2022-10-31T02:48:36.442Z,98875.31
2022-10-31T02:51:05.286Z,98873.47
2022-10-31T02:53:36.161Z,98875.81
2022-10-31T02:56:07.594Z,98880.47
2022-10-31T02:58:39.115Z,98873.69
2022-10-31T03:01:18.132Z,98887.09
2022-10-31T03:04:00.000Z,98889.84
2022-10-31T03:06:32.080Z,98888.22
2022-10-31T03:09:23.979Z,98887.09
2022-10-31T03:12:02.222Z,98890.31
2022-10-31T03:14:37.595Z,98884.31
2022-10-31T03:17:09.288Z,98893.31
2022-10-31T03:19:41.251Z,98892.56
2022-10-31T03:22:13.231Z,98896.16
2022-10-31T03:24:40.733Z,98894.44
2022-10-31T03:27:11.309Z,98906.88
2022-10-31T03:29:41.263Z,98913.91
2022-10-31T03:32:13.894Z,98907.78
2022-10-31T03:34:45.013Z,98911.34
2022-10-31T03:37:15.585Z,98918.47
2022-10-31T03:39:44.929Z,98906.31
2022-10-31T03:42:23.343Z,98915.19
2022-10-31T03:45:19.918Z,98919.63
2022-10-31T03:47:46.621Z,98924.88
2022-10-31T03:50:16.211Z,98920.50
2022-10-31T03:52:49.019Z,98928.44
2022-10-31T03:55:24.244Z,98929.44
2022-10-31T03:58:01.207Z,98930.38
2022-10-31T04:00:28.378Z,98929.59
2022-10-31T04:03:02.206Z,98938.38
2022-10-31T04:05:31.824Z,98935.78
2022-10-31T04:08:01.178Z,98934.00
2022-10-31T04:10:32.943Z,98933.03
2022-10-31T04:13:08.271Z,98940.03
2022-10-31T04:15:38.099Z,98930.50
2022-10-31T04:18:06.302Z,98937.66
2022-10-31T04:20:41.809Z,98935.06
2022-10-31T04:23:17.379Z,98939.31
2022-10-31T04:25:43.815Z,98942.03
2022-10-31T04:28:10.353Z,98938.41
2022-10-31T04:30:37.024Z,98939.13
2022-10-31T04:33:03.860Z,98942.59
2022-10-31T04:35:30.535Z,98936.53
2022-10-31T04:37:57.016Z,98941.91
2022-10-31T04:40:23.673Z,98939.06
2022-10-31T04:42:50.295Z,98940.91
2022-10-31T04:45:20.146Z,98941.66
2022-10-31T04:47:47.972Z,98946.06
2022-10-31T04:50:14.491Z,98943.41
2022-10-31T04:52:45.796Z,98944.22
2022-10-31T04:55:13.443Z,98944.34
2022-10-31T04:57:43.734Z,98940.66
2022-10-31T05:00:13.680Z,98939.66
2022-10-31T05:02:44.719Z,98929.97
2022-10-31T05:05:12.021Z,98926.41
2022-10-31T05:07:42.155Z,98927.19
2022-10-31T05:10:10.950Z,98925.34
2022-10-31T05:12:38.044Z,98925.44
2022-10-31T05:15:06.393Z,98938.59
2022-10-31T05:17:33.242Z,98917.56
2022-10-31T05:19:59.839Z,98916.78
2022-10-31T05:22:26.529Z,98917.75
2022-10-31T05:24:53.124Z,98933.56
2022-10-31T05:27:19.786Z,98920.41
2022-10-31T05:29:46.464Z,98924.94
2022-10-31T05:32:13.185Z,98923.31
2022-10-31T05:34:39.722Z,98927.00
2022-10-31T05:37:06.320Z,98923.16
2022-10-31T05:39:32.858Z,98929.28
2022-10-31T05:41:59.504Z,98927.47
2022-10-31T05:44:26.181Z,98926.69
2022-10-31T05:46:52.805Z,98933.72
2022-10-31T05:49:19.565Z,98921.59
2022-10-31T05:51:46.160Z,98927.00
2022-10-31T05:54:15.897Z,98927.28
2022-10-31T05:56:42.797Z,98921.09
2022-10-31T05:59:09.391Z,98928.22
2022-10-31T06:01:36.030Z,98924.56
2022-10-31T06:04:02.737Z,98928.31
2022-10-31T06:06:29.431Z,98932.75
2022-10-31T06:08:56.098Z,98931.09
2022-10-31T06:11:22.744Z,98932.69
2022-10-31T06:13:49.360Z,98931.69
2022-10-31T06:16:16.021Z,98929.81
2022-10-31T06:18:42.577Z,98937.56
2022-10-31T06:21:09.636Z,98930.66
2022-10-31T06:23:37.459Z,98935.84
2022-10-31T06:26:04.102Z,98937.56
2022-10-31T06:28:30.711Z,98931.34
2022-10-31T06:30:57.378Z,98941.00
2022-10-31T06:33:24.032Z,98946.47
2022-10-31T06:35:50.636Z,98949.97
2022-10-31T06:38:17.327Z,98948.09
2022-10-31T06:40:43.843Z,98952.59
2022-10-31T06:43:12.273Z,98956.72
2022-10-31T06:45:38.858Z,98956.53
2022-10-31T06:48:21.634Z,98967.06
2022-10-31T06:50:48.463Z,98961.94
2022-10-31T06:53:15.413Z,98957.44
2022-10-31T06:55:43.127Z,98962.66
2022-10-31T06:58:11.337Z,98964.34
2022-10-31T07:00:38.484Z,98967.59
2022-10-31T07:03:12.012Z,98962.22
2022-10-31T07:05:39.300Z,98964.97
2022-10-31T07:08:09.694Z,98967.66
2022-10-31T07:10:40.489Z,98970.28
2022-10-31T07:13:11.697Z,98968.38
2022-10-31T07:15:39.659Z,98968.19
2022-10-31T07:18:08.831Z,98969.72
2022-10-31T07:20:35.995Z,98973.97
2022-10-31T07:23:03.234Z,98972.13
2022-10-31T07:25:30.194Z,98965.66
2022-10-31T07:27:57.408Z,98983.03
2022-10-31T07:30:24.384Z,98981.09
2022-10-31T07:32:51.843Z,98985.19
2022-10-31T07:35:24.694Z,98977.00
2022-10-31T07:37:51.860Z,98982.69
2022-10-31T07:40:20.254Z,98985.00
2022-10-31T07:42:48.735Z,98984.75
2022-10-31T07:45:17.970Z,98992.25
2022-10-31T07:47:45.565Z,98996.16
2022-10-31T07:50:15.304Z,98986.69
2022-10-31T07:52:41.937Z,98989.50
2022-10-31T07:55:08.935Z,98987.03
2022-10-31T07:57:35.866Z,98992.50
2022-10-31T08:00:02.614Z,98986.50
2022-10-31T08:02:29.147Z,98978.41
2022-10-31T08:04:58.686Z,98982.47
2022-10-31T08:07:27.821Z,98978.78
2022-10-31T08:09:54.795Z,98976.81
2022-10-31T08:12:21.803Z,98976.41
2022-10-31T08:14:48.795Z,98977.06
2022-10-31T08:17:15.784Z,98978.53
2022-10-31T08:19:42.454Z,98982.03
2022-10-31T08:22:09.067Z,98978.59
2022-10-31T08:24:35.630Z,98984.91
2022-10-31T08:27:02.220Z,98992.69
2022-10-31T08:29:28.908Z,98988.25
2022-10-31T08:31:55.380Z,98982.97
2022-10-31T08:34:21.981Z,98982.00
2022-10-31T08:36:48.641Z,98981.13
2022-10-31T08:39:15.238Z,98974.34
2022-10-31T08:41:41.872Z,98977.53
2022-10-31T08:44:08.495Z,98977.34
2022-10-31T08:46:35.450Z,98977.75
2022-10-31T08:49:02.165Z,98968.72
2022-10-31T08:51:28.747Z,98971.28
2022-10-31T08:53:55.244Z,98969.28
2022-10-31T08:56:23.456Z,98965.66
2022-10-31T08:58:50.259Z,98963.44
2022-10-31T09:01:17.051Z,98960.13
2022-10-31T09:03:43.791Z,98956.44
2022-10-31T09:06:10.438Z,98968.19
2022-10-31T09:08:37.259Z,98960.28
2022-10-31T09:11:05.088Z,98955.34
2022-10-31T09:13:31.752Z,98957.09
2022-10-31T09:15:59.813Z,98954.03
2022-10-31T09:18:29.015Z,98949.16
2022-10-31T09:20:59.027Z,98951.44
2022-10-31T09:23:26.006Z,98952.16
2022-10-31T09:25:54.167Z,98952.06
2022-10-31T09:28:23.454Z,98950.81
2022-10-31T09:30:52.750Z,98952.22
2022-10-31T09:33:19.691Z,98949.63
2022-10-31T09:35:46.801Z,98953.41
2022-10-31T09:38:20.327Z,98957.81
2022-10-31T09:41:11.356Z,98948.63
2022-10-31T09:44:05.761Z,98940.44
2022-10-31T09:46:41.796Z,98945.38
2022-10-31T09:49:23.653Z,98942.03
2022-10-31T09:52:00.280Z,98946.78
2022-10-31T09:54:39.231Z,98942.50
2022-10-31T09:57:11.760Z,98936.22
2022-10-31T09:59:41.357Z,98936.84
2022-10-31T10:02:17.616Z,98937.06
2022-10-31T10:05:05.461Z,98929.09
2022-10-31T10:08:02.122Z,98922.66
2022-10-31T10:10:42.438Z,98918.53
2022-10-31T10:13:37.793Z,98921.38
2022-10-31T10:16:48.301Z,98925.50
2022-10-31T10:19:27.068Z,98920.47
2022-10-31T10:22:19.719Z,98911.09
2022-10-31T10:24:46.237Z,98920.34
2022-10-31T10:27:37.290Z,98914.78
2022-10-31T10:30:42.405Z,98912.88
2022-10-31T10:33:13.611Z,98918.00
2022-10-31T10:35:46.535Z,98907.38
2022-10-31T10:38:17.262Z,98902.41
2022-10-31T10:40:44.745Z,98899.13
2022-10-31T10:43:24.497Z,98902.41
2022-10-31T10:46:13.120Z,98899.97
2022-10-31T10:48:53.474Z,98888.25
2022-10-31T10:51:38.941Z,98892.44
2022-10-31T10:54:21.235Z,98898.59
2022-10-31T10:56:57.518Z,98891.22
2022-10-31T10:59:24.287Z,98894.63
2022-10-31T11:01:52.869Z,98885.19
2022-10-31T11:04:34.954Z,98877.94
2022-10-31T11:07:11.148Z,98878.13
2022-10-31T11:09:38.722Z,98875.34
2022-10-31T11:12:10.678Z,98866.06
2022-10-31T11:14:54.510Z,98868.63
2022-10-31T11:17:26.415Z,98860.72
2022-10-31T11:20:05.296Z,98860.28
2022-10-31T11:22:32.047Z,98860.91
2022-10-31T11:24:58.637Z,98847.72
2022-10-31T11:27:26.807Z,98841.41
2022-10-31T11:29:56.886Z,98840.16
2022-10-31T11:32:28.598Z,98837.84
2022-10-31T11:35:00.091Z,98833.50
2022-10-31T11:37:33.738Z,98833.59
2022-10-31T11:40:03.016Z,98821.75
2022-10-31T11:42:39.225Z,98828.94
2022-10-31T11:45:29.390Z,98826.88
2022-10-31T11:47:59.868Z,98830.69
2022-10-31T11:50:40.593Z,98823.28
2022-10-31T11:53:17.096Z,98824.75
2022-10-31T11:55:44.122Z,98815.22
2022-10-31T11:58:26.454Z,98817.53
2022-10-31T12:00:55.934Z,98814.88
2022-10-31T12:03:39.771Z,98822.50
2022-10-31T12:06:10.093Z,98809.00
2022-10-31T12:08:38.382Z,98813.06
2022-10-31T12:11:23.674Z,98813.38
2022-10-31T12:14:04.019Z,98813.50
2022-10-31T12:16:49.177Z,98812.59
2022-10-31T12:19:34.048Z,98799.78
2022-10-31T12:22:13.085Z,98795.66
2022-10-31T12:24:57.919Z,98785.44
2022-10-31T12:27:24.387Z,98789.63
2022-10-31T12:30:16.733Z,98781.38
2022-10-31T12:33:21.651Z,98781.38
2022-10-31T12:36:17.281Z,98769.59
2022-10-31T12:38:50.540Z,98771.06
2022-10-31T12:41:19.903Z,98772.38
2022-10-31T12:44:06.553Z,98769.19
2022-10-31T12:47:02.462Z,98767.38
2022-10-31T12:49:43.292Z,98768.94
2022-10-31T12:52:15.547Z,98760.31
2022-10-31T12:54:48.264Z,98757.84
2022-10-31T12:57:17.877Z,98750.16
2022-10-31T12:59:50.209Z,98751.44
2022-10-31T13:02:20.483Z,98744.31
2022-10-31T13:05:02.910Z,98741.84
2022-10-31T13:07:38.937Z,98746.91
2022-10-31T13:10:15.437Z,98743.47
2022-10-31T13:12:43.577Z,98745.03
2022-10-31T13:15:19.271Z,98737.47
2022-10-31T13:18:12.408Z,98742.34
2022-10-31T13:20:44.434Z,98730.91
2022-10-31T13:23:36.573Z,98727.13
2022-10-31T13:26:08.077Z,98729.34
2022-10-31T13:28:46.057Z,98720.66
2022-10-31T13:31:14.364Z,98710.88
2022-10-31T13:33:48.230Z,98715.69
2022-10-31T13:36:36.600Z,98712.50
2022-10-31T13:39:32.244Z,98708.22
2022-10-31T13:42:32.348Z,98711.75
2022-10-31T13:45:18.769Z,98695.47
2022-10-31T13:47:57.093Z,98700.81
2022-10-31T13:50:26.574Z,98699.09
2022-10-31T13:52:53.284Z,98692.22
2022-10-31T13:55:40.319Z,98690.94
2022-10-31T13:58:21.141Z,98688.44
2022-10-31T14:00:58.731Z,98684.81
2022-10-31T14:03:49.437Z,98683.28
2022-10-31T14:06:13.970Z,98678.19
2022-10-31T14:08:50.364Z,98671.91
2022-10-31T14:11:32.841Z,98675.50
2022-10-31T14:14:03.103Z,98672.16
2022-10-31T14:16:33.523Z,98670.50
2022-10-31T14:19:13.965Z,98676.19
2022-10-31T14:21:45.958Z,98678.06
2022-10-31T14:24:24.725Z,98670.78
2022-10-31T14:26:57.567Z,98672.72
2022-10-31T14:29:34.871Z,98662.25
2022-10-31T14:32:19.275Z,98667.50
2022-10-31T14:34:55.480Z,98668.16
2022-10-31T14:37:53.090Z,98674.34
2022-10-31T14:40:32.875Z,98665.91
2022-10-31T14:43:30.406Z,98661.91
2022-10-31T14:46:04.997Z,98672.47
2022-10-31T14:48:54.243Z,98660.66
2022-10-31T14:51:23.470Z,98659.97
2022-10-31T14:53:58.542Z,98661.44
2022-10-31T14:56:38.381Z,98654.31
2022-10-31T14:59:13.733Z,98656.75
2022-10-31T15:01:41.147Z,98650.88
2022-10-31T15:04:23.559Z,98653.06
2022-10-31T15:06:59.026Z,98640.13
2022-10-31T15:09:44.725Z,98639.56
2022-10-31T15:12:23.623Z,98643.47
2022-10-31T15:14:50.307Z,98636.09
2022-10-31T15:17:17.466Z,98633.59
2022-10-31T15:19:44.798Z,98640.06
2022-10-31T15:22:16.961Z,98634.94
2022-10-31T15:24:44.520Z,98634.34
2022-10-31T15:27:17.557Z,98636.63
2022-10-31T15:29:55.631Z,98624.28
2022-10-31T15:32:27.561Z,98623.88
2022-10-31T15:34:56.863Z,98624.97
2022-10-31T15:37:25.947Z,98627.03
2022-10-31T15:39:52.742Z,98624.00
2022-10-31T15:42:30.212Z,98618.19
2022-10-31T15:45:17.731Z,98621.22
2022-10-31T15:47:55.430Z,98619.50
2022-10-31T15:50:47.191Z,98608.91
2022-10-31T15:53:50.871Z,98618.50
2022-10-31T15:56:24.163Z,98608.28
2022-10-31T15:58:53.652Z,98600.69
2022-10-31T16:01:26.083Z,98599.16
2022-10-31T16:04:20.929Z,98597.59
2022-10-31T16:06:59.421Z,98602.38
2022-10-31T16:09:26.280Z,98599.34
2022-10-31T16:11:53.041Z,98587.28
2022-10-31T16:14:25.679Z,98591.97
2022-10-31T16:16:59.067Z,98592.22
2022-10-31T16:19:31.239Z,98597.06
2022-10-31T16:22:08.918Z,98600.75
2022-10-31T16:24:49.351Z,98600.06
2022-10-31T16:27:28.023Z,98599.53
2022-10-31T16:29:55.232Z,98607.03
2022-10-31T16:32:36.214Z,98608.28
2022-10-31T16:35:11.508Z,98606.88
2022-10-31T16:37:41.474Z,98601.94
2022-10-31T16:40:11.252Z,98597.81
2022-10-31T16:42:37.814Z,98596.03
2022-10-31T16:45:06.685Z,98598.88
2022-10-31T16:47:33.333Z,98602.63
2022-10-31T16:50:01.235Z,98602.00
2022-10-31T16:52:31.516Z,98595.13
2022-10-31T16:55:04.921Z,98603.97
2022-10-31T16:57:32.424Z,98612.28
2022-10-31T16:59:59.075Z,98604.44
2022-10-31T17:02:26.090Z,98599.38
2022-10-31T17:04:56.617Z,98598.50
2022-10-31T17:07:23.618Z,98595.00
2022-10-31T17:09:50.179Z,98590.63
2022-10-31T17:12:21.441Z,98596.97
2022-10-31T17:14:51.904Z,98596.22
2022-10-31T17:17:18.549Z,98592.84
2022-10-31T17:19:45.245Z,98598.19
2022-10-31T17:22:13.230Z,98598.53
2022-10-31T17:24:39.909Z,98596.81
2022-10-31T17:27:06.861Z,98598.03
2022-10-31T17:29:33.512Z,98595.00
2022-10-31T17:32:00.555Z,98595.06
2022-10-31T17:34:27.188Z,98581.22
2022-10-31T17:36:53.982Z,98580.59
2022-10-31T17:39:20.694Z,98583.25
2022-10-31T17:41:51.269Z,98581.50
2022-10-31T17:44:18.403Z,98580.59
2022-10-31T17:46:45.066Z,98589.53
2022-10-31T17:49:12.483Z,98583.47
2022-10-31T17:51:39.182Z,98582.41
2022-10-31T17:54:07.096Z,98576.38
2022-10-31T17:56:33.668Z,98580.91
2022-10-31T17:59:00.562Z,98572.97
2022-10-31T18:01:27.377Z,98563.13
2022-10-31T18:03:53.982Z,98572.09
2022-10-31T18:06:20.531Z,98565.06
2022-10-31T18:08:47.483Z,98567.69
2022-10-31T18:11:20.990Z,98564.38
2022-10-31T18:13:47.999Z,98560.88
2022-10-31T18:16:17.461Z,98545.06
2022-10-31T18:18:44.060Z,98551.25
2022-10-31T18:21:10.862Z,98550.38
2022-10-31T18:23:37.552Z,98558.38
2022-10-31T18:26:04.465Z,98575.41
2022-10-31T18:28:31.030Z,98591.63
2022-10-31T18:31:00.971Z,98595.88
2022-10-31T18:33:27.717Z,98587.47
2022-10-31T18:35:54.419Z,98570.13
2022-10-31T18:38:21.278Z,98552.44
2022-10-31T18:40:48.008Z,98540.59
2022-10-31T18:43:14.547Z,98540.84
2022-10-31T18:45:46.871Z,98554.53
2022-10-31T18:48:16.188Z,98563.84
2022-10-31T18:50:43.247Z,98560.34
2022-10-31T18:53:10.107Z,98553.41
2022-10-31T18:55:44.062Z,98559.75
2022-10-31T18:58:14.343Z,98554.69
2022-10-31T19:00:41.003Z,98548.09
2022-10-31T19:03:07.602Z,98537.81
2022-10-31T19:05:34.255Z,98541.69
2022-10-31T19:08:00.849Z,98532.94
2022-10-31T19:10:27.409Z,98536.41
2022-10-31T19:12:54.124Z,98532.78
2022-10-31T19:15:20.795Z,98522.06
2022-10-31T19:17:47.442Z,98528.97
2022-10-31T19:20:14.299Z,98532.75
2022-10-31T19:22:40.876Z,98543.59
2022-10-31T19:25:10.712Z,98528.06
2022-10-31T19:27:38.397Z,98534.00
2022-10-31T19:30:06.127Z,98529.16
2022-10-31T19:32:32.886Z,98522.31
2022-10-31T19:34:59.514Z,98513.59
2022-10-31T19:37:26.088Z,98511.81
2022-10-31T19:39:52.897Z,98520.44
2022-10-31T19:42:19.567Z,98513.25
2022-10-31T19:44:46.223Z,98527.50
2022-10-31T19:47:12.890Z,98526.63
2022-10-31T19:49:39.476Z,98531.03
2022-10-31T19:52:06.090Z,98525.94
2022-10-31T19:54:32.726Z,98527.94
2022-10-31T19:56:59.362Z,98527.94
2022-10-31T19:59:26.474Z,98520.28
2022-10-31T20:01:53.210Z,98512.59
2022-10-31T20:04:19.922Z,98505.59
2022-10-31T20:06:46.565Z,98507.16
2022-10-31T20:09:14.214Z,98496.47
2022-10-31T20:11:42.486Z,98486.63
2022-10-31T20:14:11.657Z,98487.31
2022-10-31T20:16:38.519Z,98479.28
2022-10-31T20:19:05.172Z,98481.00
2022-10-31T20:21:35.458Z,98476.59
2022-10-31T20:24:04.019Z,98469.34
2022-10-31T20:26:33.617Z,98462.13
2022-10-31T20:29:01.173Z,98448.22
2022-10-31T20:31:31.137Z,98449.75
2022-10-31T20:33:58.085Z,98435.53
2022-10-31T20:36:25.489Z,98439.75
2022-10-31T20:38:52.636Z,98441.34
2022-10-31T20:41:19.533Z,98434.03
2022-10-31T20:43:46.800Z,98418.22
2022-10-31T20:46:22.440Z,98408.44
2022-10-31T20:48:49.997Z,98414.97
2022-10-31T20:51:23.831Z,98434.25
2022-10-31T20:53:55.170Z,98452.16
2022-10-31T20:56:24.210Z,98456.22
2022-10-31T20:58:51.008Z,98444.28
2022-10-31T21:01:22.836Z,98431.09
2022-10-31T21:03:50.345Z,98426.69
2022-10-31T21:06:18.280Z,98408.25
2022-10-31T21:08:45.509Z,98409.81
2022-10-31T21:11:16.108Z,98417.91
2022-10-31T21:13:44.329Z,98402.28
2022-10-31T21:16:14.192Z,98407.13
2022-10-31T21:18:42.769Z,98413.88
2022-10-31T21:21:11.364Z,98393.41
2022-10-31T21:23:38.763Z,98389.38
2022-10-31T21:26:17.277Z,98386.03
2022-10-31T21:28:44.015Z,98388.53
2022-10-31T21:31:13.643Z,98388.31
2022-10-31T21:33:40.495Z,98378.44
2022-10-31T21:36:07.519Z,98366.34
2022-10-31T21:38:35.385Z,98368.22
2022-10-31T21:41:06.439Z,98367.81
2022-10-31T21:43:36.234Z,98357.44
2022-10-31T21:46:07.473Z,98368.19
2022-10-31T21:48:34.325Z,98368.41
2022-10-31T21:51:04.771Z,98362.44
2022-10-31T21:53:50.169Z,98366.06
2022-10-31T21:56:16.860Z,98360.19
2022-10-31T21:58:43.485Z,98372.69
2022-10-31T22:01:10.258Z,98363.84
2022-10-31T22:03:38.458Z,98361.72
2022-10-31T22:06:06.619Z,98360.06
2022-10-31T22:08:33.424Z,98359.22
2022-10-31T22:11:04.818Z,98352.19
2022-10-31T22:13:32.853Z,98343.81
2022-10-31T22:16:04.343Z,98338.41
2022-10-31T22:18:31.004Z,98338.03
2022-10-31T22:21:02.060Z,98340.59
2022-10-31T22:23:28.990Z,98335.31
2022-10-31T22:25:55.787Z,98328.50
2022-10-31T22:28:22.418Z,98325.63
2022-10-31T22:30:49.064Z,98322.50
2022-10-31T22:33:15.671Z,98326.97
2022-10-31T22:35:42.161Z,98324.81
2022-10-31T22:38:08.773Z,98319.31
2022-10-31T22:40:35.300Z,98316.28
2022-10-31T22:43:02.074Z,98316.66
2022-10-31T22:45:28.930Z,98310.63
2022-10-31T22:47:55.463Z,98300.09
2022-10-31T22:50:22.063Z,98297.44
2022-10-31T22:52:48.667Z,98286.28
2022-10-31T22:55:15.657Z,98290.81
2022-10-31T22:57:42.234Z,98277.69
2022-10-31T23:00:09.404Z,98274.06
2022-10-31T23:02:36.348Z,98267.06
2022-10-31T23:05:03.126Z,98265.22
2022-10-31T23:07:33.055Z,98267.69
2022-10-31T23:09:59.879Z,98273.00
2022-10-31T23:12:45.048Z,98268.41
2022-10-31T23:15:11.661Z,98268.31
2022-10-31T23:17:39.248Z,98266.69
2022-10-31T23:20:07.264Z,98252.13
2022-10-31T23:22:33.851Z,98244.81
2022-10-31T23:25:00.527Z,98251.31
2022-10-31T23:27:27.232Z,98256.09
2022-10-31T23:29:56.467Z,98272.81
2022-10-31T23:32:25.223Z,98288.75
2022-10-31T23:34:54.429Z,98283.00
2022-10-31T23:37:23.369Z,98297.38
2022-10-31T23:39:50.442Z,98297.84
2022-10-31T23:42:17.560Z,98295.22
2022-10-31T23:44:44.763Z,98286.78
2022-10-31T23:47:11.716Z,98294.75
2022-10-31T23:49:38.479Z,98303.69
2022-10-31T23:52:05.894Z,98301.06
2022-10-31T23:54:33.059Z,98293.41
2022-10-31T23:57:00.143Z,98299.56
2022-10-31T23:59:27.016Z,98299.50
